Forside
METAR-TAF:

METAR-TAF

Lufthavne :

Utsunomiya, Japan

Breddekreds: 36-31N, længdekreds: 139-52E, højde: 102 m

Aktuelle vejr

Denne rapport blev lavet for 10 timer og 36 minutter siden, kl. 07:10 UTC
Vind 9 kt fra østsydøst
Temperatur 9°C
Fugtighed 76%
Tryk 1001 hPa
Sigt 10 km eller mere
Nogle få skyer i en højde af 2500 ft
Brudte skyer i en højde af 3000 ft
Brudte skyer i en højde af 8000 ft

METAR: RJTU 170710Z 11009KT 9999 FEW025 BKN030 BKN080 09/05 Q1001 RMK 1SC025 5SC030 7AC080 A2957

Tid: 02:46 (17:46 UTC)


TAF: fraværende

Vejrobservationer og prognoser fra mere end 4000 lufthavne (METAR og TAF).

De gule og røde prikker repræsenterer de meteorologiske stationer.

Flyt musen over at se navnet på stationen.

Så klik over at se vejr observationer og prognoser.

At skifte det kort: Klik på de grønne knapper med et sort kors for at zoome ind; på den grønne knap med en bindestreg for at zoome ud; eller på de grønne pile for tilstødende kort.


METAR-TAF: